Flight Track Log - Related Links

Times and Time Zones

All times are in EDT time to prevent confusion due to time zone crossing. See the UAL4206 flight status page for this flight to view local times or setup timezone preferences in your user account.

Time Position Orientation Groundspeed Altitude Reporting Facility
EDT Latitude Longitude Course Direction KTS MPH feet Rate Location/Type
Mon 05:03:10 PM 29.9803 -95.2931 12° North 162 186 800  Level Houston Center
Mon 05:04:36 PM 30.0625 -95.2733 12° North 252 290 2,700 1,313 Climbing Houston Center
Mon 05:05:18 PM 30.0981 -95.2725 North 243 280 3,600 1,771 Climbing Houston Center
Mon 05:06:21 PM 30.1844 -95.2719 360° North 256 295 5,800 2,064 Climbing Houston Center
Mon 05:07:23 PM 30.2594 -95.2822 353° North 267 307 7,900 1,984 Climbing Houston Center
Mon 05:08:25 PM 30.3297 -95.2572 17° North 277 319 9,900 1,355 Climbing Houston Center
Mon 05:09:27 PM 30.3986 -95.2075 32° Northeast 292 336 10,700 823 Climbing Houston Center
Mon 05:10:29 PM 30.4931 -95.1425 31° Northeast 334 384 11,600 1,016 Climbing Houston Center
Mon 05:11:31 PM 30.5750 -95.0850 31° Northeast 342 394 12,800 1,113 Climbing Houston Center
Mon 05:12:33 PM 30.6594 -95.0314 29° Northeast 345 397 13,900 919 Climbing Houston Center
Mon 05:13:35 PM 30.7453 -94.9781 28° Northeast 349 402 14,700 774 Climbing Houston Center
Mon 05:14:37 PM 30.8339 -94.9231 28° Northeast 357 411 15,500 768 Climbing Houston Center
Mon 05:15:40 PM 30.9239 -94.8664 28° Northeast 365 420 16,300 816 Climbing Houston Center
Mon 05:16:42 PM 31.0333 -94.7983 28° Northeast 371 427 17,200 823 Climbing Houston Center
Mon 05:17:44 PM 31.1236 -94.7411 28° Northeast 370 426 18,000 871 Climbing Houston Center
Mon 05:18:46 PM 31.2094 -94.6819 31° Northeast 374 430 19,000 1,016 Climbing Houston Center
Mon 05:19:48 PM 31.3153 -94.6111 30° Northeast 376 433 20,100 1,016 Climbing Houston Center
Mon 05:20:50 PM 31.4053 -94.5497 30° Northeast 376 433 21,100 919 Climbing Houston Center
Mon 05:21:52 PM 31.4947 -94.4878 31° Northeast 375 432 22,000 919 Climbing Houston Center
Mon 05:22:54 PM 31.5850 -94.4250 31° Northeast 376 433 23,000 968 Climbing Houston Center
Mon 05:23:56 PM 31.6739 -94.3628 31° Northeast 374 430 24,000 960 Climbing Houston Center
Mon 05:24:59 PM 31.7628 -94.2978 32° Northeast 375 432 25,000 960 Climbing Houston Center
Mon 05:26:01 PM 31.8492 -94.2122 40° Northeast 376 433 26,000 990 Climbing Houston Center
Mon 05:26:42 PM 31.9083 -94.1586 38° Northeast 375 432 26,700 1,000 Climbing Fort Worth Center
Mon 05:27:43 PM 31.9878 -94.0822 39° Northeast 375 432 27,700 1,000 Climbing Fort Worth Center
Mon 05:28:42 PM 32.0692 -94.0033 39° Northeast 375 432 28,700 958 Climbing Fort Worth Center
Mon 05:29:42 PM 32.1506 -93.9267 39° Northeast 370 426 29,600 900 Climbing Fort Worth Center
Mon 05:30:42 PM 32.2275 -93.8403 44° Northeast 370 426 30,500 950 Climbing Fort Worth Center
Mon 05:31:42 PM 32.3086 -93.7633 39° Northeast 375 432 31,500 1,000 Climbing Fort Worth Center
Mon 05:32:42 PM 32.3897 -93.6814 40° Northeast 375 432 32,500 750 Climbing Fort Worth Center
Mon 05:33:42 PM 32.4711 -93.6067 38° Northeast 375 432 33,000 500 Climbing Fort Worth Center
Mon 05:34:42 PM 32.5561 -93.5217 40° Northeast 380 437 33,500 600 Climbing Fort Worth Center
Mon 05:35:42 PM 32.6433 -93.4364 39° Northeast 385 443 34,200 650 Climbing Fort Worth Center
Mon 05:36:42 PM 32.7303 -93.3511 40° Northeast 391 450 34,800 400 Climbing Fort Worth Center
Mon 05:37:42 PM 32.8192 -93.2631 40° Northeast 397 457 35,000 100 Climbing Fort Worth Center
Mon 05:38:42 PM 32.9103 -93.1747 39° Northeast 411 473 35,000  Level Fort Worth Center
Mon 05:39:42 PM 33.0069 -93.0761 41° Northeast 425 489 35,000  Level Fort Worth Center
Mon 05:40:42 PM 33.1039 -92.9822 39° Northeast 444 511 35,000  Level Fort Worth Center
Mon 05:41:42 PM 33.2147 -92.8697 40° Northeast 463 533 35,000  Level Fort Worth Center
Mon 05:44:00 PM 33.4336 -92.6547 39° Northeast 466 536 35,000  Level Memphis Center
Mon 05:45:00 PM 33.5314 -92.5553 40° Northeast 466 536 35,000  Level Memphis Center
Mon 05:46:00 PM 33.6314 -92.4553 40° Northeast 466 536 35,000  Level Memphis Center
Mon 05:47:00 PM 33.7311 -92.3553 40° Northeast 466 536 35,000  Level Memphis Center
Mon 05:48:00 PM 33.8308 -92.2553 40° Northeast 466 536 35,000  Level Memphis Center
Mon 05:49:00 PM 33.9322 -92.1572 39° Northeast 461 531 35,000  Level Memphis Center
Mon 05:50:00 PM 34.0297 -92.0539 41° Northeast 461 531 35,000  Level Memphis Center
Mon 05:51:00 PM 34.1336 -91.9381 43° Northeast 461 531 35,000  Level Memphis Center
Mon 05:52:00 PM 34.2328 -91.8369 40° Northeast 461 531 35,000  Level Memphis Center
Mon 05:53:00 PM 34.3300 -91.7356 41° Northeast 466 536 35,000  Level Memphis Center
Mon 05:54:00 PM 34.4228 -91.6439 39° Northeast 466 536 35,000  Level Memphis Center
Mon 05:55:00 PM 34.5219 -91.5394 41° Northeast 466 536 35,000  Level Memphis Center
Mon 05:56:00 PM 34.6294 -91.4272 41° Northeast 466 536 35,000  Level Memphis Center
Mon 05:57:00 PM 34.7303 -91.3225 40° Northeast 466 536 35,000  Level Memphis Center
Mon 05:58:00 PM 34.8292 -91.2172 41° Northeast 471 542 35,000  Level Memphis Center
Mon 05:59:00 PM 34.9300 -91.1144 40° Northeast 465 535 35,000  Level Memphis Center
Mon 06:00:00 PM 35.0264 -91.0114 41° Northeast 460 529 35,000  Level Memphis Center
Mon 06:01:00 PM 35.1250 -90.9056 41° Northeast 460 529 35,000  Level Memphis Center
Mon 06:02:00 PM 35.2214 -90.8044 41° Northeast 460 529 35,000  Level Memphis Center
Mon 06:03:00 PM 35.3197 -90.6981 41° Northeast 467 537 35,000  Level Memphis Center
Mon 06:04:00 PM 35.4075 -90.6042 41° Northeast 467 537 35,000  Level Memphis Center
Mon 06:05:00 PM 35.5078 -90.4972 41° Northeast 467 537 35,000  Level Memphis Center
Mon 06:06:00 PM 35.6061 -90.3903 41° Northeast 467 537 35,000  Level Memphis Center
Mon 06:07:00 PM 35.7061 -90.2753 43° Northeast 456 525 35,000  Level Memphis Center
Mon 06:08:00 PM 35.8039 -90.1675 42° Northeast 451 519 35,000  Level Memphis Center
Mon 06:09:00 PM 35.9017 -90.0622 41° Northeast 456 525 35,000  Level Memphis Center
Mon 06:10:00 PM 36.0017 -89.9517 42° Northeast 462 532 35,000  Level Memphis Center
Mon 06:11:00 PM 36.0992 -89.8483 41° Northeast 467 537 35,000  Level Memphis Center
Mon 06:12:00 PM 36.1986 -89.7397 41° Northeast 462 532 35,000  Level Memphis Center
Mon 06:13:00 PM 36.2942 -89.6333 42° Northeast 462 532 35,000 -50 Level Memphis Center
Mon 06:14:00 PM 36.3811 -89.5397 41° Northeast 462 532 34,900 -400 Descending Memphis Center
Mon 06:15:00 PM 36.4803 -89.4303 42° Northeast 468 539 34,200 -700 Descending Memphis Center
Mon 06:16:00 PM 36.5817 -89.3156 42° Northeast 478 550 33,500 -550 Descending Memphis Center
Mon 06:17:00 PM 36.6786 -89.2056 42° Northeast 483 556 33,100 -250 Descending Memphis Center
Mon 06:18:00 PM 36.7733 -89.0981 42° Northeast 472 543 33,000 -50 Descending Memphis Center
Mon 06:19:00 PM 36.8703 -88.9928 41° Northeast 461 531 33,000  Level Memphis Center
Mon 06:20:00 PM 36.9647 -88.8847 42° Northeast 461 531 33,000  Level Memphis Center
Mon 06:21:00 PM 37.0633 -88.7736 42° Northeast 466 536 33,000 -441 Level Memphis Center
Mon 06:22:57 PM 37.2381 -88.5656 43° Northeast 468 539 31,700 -670 Descending Indianapolis Center
Mon 06:23:59 PM 37.3450 -88.4428 42° Northeast 468 539 31,000 -339 Descending Indianapolis Center
Mon 06:25:01 PM 37.4414 -88.3306 43° Northeast 467 537 31,000  Level Indianapolis Center
Mon 06:26:03 PM 37.5444 -88.2119 42° Northeast 465 535 31,000  Level Indianapolis Center
Mon 06:27:05 PM 37.6325 -88.1075 43° Northeast 464 534 31,000  Level Indianapolis Center
Mon 06:28:07 PM 37.7319 -87.9636 49° Northeast 467 537 31,000 -48 Level Indianapolis Center
Mon 06:29:09 PM 37.7822 -87.8339 64° Northeast 465 535 30,900 -484 Descending Indianapolis Center
Mon 06:30:11 PM 37.8381 -87.6881 64° Northeast 462 532 30,000 -976 Descending Indianapolis Center
Mon 06:31:12 PM 37.9050 -87.5072 65° Northeast 471 542 28,900 -927 Descending Indianapolis Center
Mon 06:32:14 PM 37.9625 -87.3578 64° Northeast 472 543 28,100 -726 Descending Indianapolis Center
Mon 06:33:16 PM 38.0186 -87.2061 65° Northeast 477 549 27,400 -677 Descending Indianapolis Center
Mon 06:34:18 PM 38.0736 -87.0569 65° Northeast 473 544 26,700 -677 Descending Indianapolis Center
Mon 06:35:20 PM 38.1286 -86.9067 65° Northeast 476 548 26,000 -677 Descending Indianapolis Center
Mon 06:36:22 PM 38.1961 -86.7264 64° Northeast 476 548 25,300 -629 Descending Indianapolis Center
Mon 06:37:24 PM 38.2506 -86.5764 65° Northeast 472 543 24,700 -532 Descending Indianapolis Center
Mon 06:38:26 PM 38.3064 -86.4256 65° Northeast 472 543 24,200 -532 Descending Indianapolis Center
Mon 06:39:28 PM 38.3600 -86.2758 65° Northeast 465 535 23,600 -581 Descending Indianapolis Center
Mon 06:40:30 PM 38.4133 -86.1294 65° Northeast 457 526 23,000 -919 Descending Indianapolis Center
Mon 06:41:32 PM 38.4669 -85.9828 65° Northeast 457 526 21,700 -2,565 Descending Indianapolis Center
Mon 06:42:34 PM 38.5264 -85.8125 66° East 439 505 17,700 -3,387 Descending Indianapolis Center
Mon 06:43:36 PM 38.5733 -85.6814 65° Northeast 411 473 14,700 -2,565 Descending Indianapolis Center
Mon 06:44:38 PM 38.6228 -85.5614 62° Northeast 386 444 12,400 -1,694 Descending Indianapolis Center
Mon 06:45:40 PM 38.6786 -85.4414 59° Northeast 372 428 11,200 -677 Descending Indianapolis Center
Mon 06:46:42 PM 38.7072 -85.3161 74° East 379 436 11,000 -290 Descending Indianapolis Center
Mon 06:47:44 PM 38.7150 -85.1889 85° East 361 415 10,600 -780 Descending Indianapolis Center
Mon 06:48:45 PM 38.7206 -85.0831 86° East 297 342 9,400 -1,122 Descending Indianapolis Center
Mon 06:49:47 PM 38.7269 -84.9853 85° East 278 320 8,300 -1,306 Descending Indianapolis Center
Mon 06:50:49 PM 38.7333 -84.8828 85° East 245 282 6,700 -1,452 Descending Indianapolis Center
Mon 06:51:51 PM 38.7367 -84.7964 87° East 245 282 5,300 -968 Descending Indianapolis Center
Mon 06:52:53 PM 38.7714 -84.7381 53° Northeast 239 275 4,700 -647 Descending Indianapolis Center
Mon 06:55:15 PM 38.9167 -84.6833 16° North 232 267 3,100 -683 Descending Cincinnati TRACON
Mon 06:56:15 PM 38.9667 -84.6833 360° North 211 243 2,400 -750 Descending Cincinnati TRACON
Mon 06:57:15 PM 39.0167 -84.6833 360° North 132 152 1,600 -800 Descending Cincinnati TRACON

Login

Don't have an account? Register now (free) for customized features, flight alerts, and more!